sensor_id;sensor_type;location;lat;lon;timestamp;P1;durP1;ratioP1;P2;durP2;ratioP2
5475;SDS011;2760;50.000;9.194;2023-04-23T00:01:23;6.43;;;3.83;;
5475;SDS011;2760;50.000;9.194;2023-04-23T00:03:53;8.13;;;4.30;;
5475;SDS011;2760;50.000;9.194;2023-04-23T00:06:21;4.37;;;3.90;;
5475;SDS011;2760;50.000;9.194;2023-04-23T00:08:53;4.70;;;4.30;;
5475;SDS011;2760;50.000;9.194;2023-04-23T00:11:20;8.40;;;4.30;;
5475;SDS011;2760;50.000;9.194;2023-04-23T00:13:48;8.87;;;4.37;;
5475;SDS011;2760;50.000;9.194;2023-04-23T00:16:18;4.93;;;4.53;;
5475;SDS011;2760;50.000;9.194;2023-04-23T00:18:46;8.07;;;4.13;;
5475;SDS011;2760;50.000;9.194;2023-04-23T00:21:13;5.13;;;4.10;;
5475;SDS011;2760;50.000;9.194;2023-04-23T00:23:40;6.00;;;4.10;;
5475;SDS011;2760;50.000;9.194;2023-04-23T00:26:09;8.27;;;4.60;;
5475;SDS011;2760;50.000;9.194;2023-04-23T00:28:36;5.00;;;4.50;;
5475;SDS011;2760;50.000;9.194;2023-04-23T00:31:03;5.87;;;4.63;;
5475;SDS011;2760;50.000;9.194;2023-04-23T00:33:30;7.50;;;3.93;;
5475;SDS011;2760;50.000;9.194;2023-04-23T00:35:57;4.60;;;4.20;;
5475;SDS011;2760;50.000;9.194;2023-04-23T00:38:24;6.00;;;5.03;;
5475;SDS011;2760;50.000;9.194;2023-04-23T00:40:51;5.87;;;5.27;;
5475;SDS011;2760;50.000;9.194;2023-04-23T00:43:22;5.87;;;4.93;;
5475;SDS011;2760;50.000;9.194;2023-04-23T00:45:49;6.63;;;4.20;;
5475;SDS011;2760;50.000;9.194;2023-04-23T00:48:16;9.73;;;5.20;;
5475;SDS011;2760;50.000;9.194;2023-04-23T00:50:43;6.23;;;5.10;;
5475;SDS011;2760;50.000;9.194;2023-04-23T00:53:11;10.37;;;5.37;;
5475;SDS011;2760;50.000;9.194;2023-04-23T00:55:38;9.00;;;5.30;;
5475;SDS011;2760;50.000;9.194;2023-04-23T00:58:06;10.50;;;5.70;;
5475;SDS011;2760;50.000;9.194;2023-04-23T01:00:35;6.97;;;5.20;;
5475;SDS011;2760;50.000;9.194;2023-04-23T01:03:10;7.77;;;5.47;;
5475;SDS011;2760;50.000;9.194;2023-04-23T01:05:38;13.83;;;5.50;;
5475;SDS011;2760;50.000;9.194;2023-04-23T01:08:07;6.30;;;5.70;;
5475;SDS011;2760;50.000;9.194;2023-04-23T01:10:39;6.60;;;6.00;;
5475;SDS011;2760;50.000;9.194;2023-04-23T01:13:07;5.57;;;4.80;;
5475;SDS011;2760;50.000;9.194;2023-04-23T01:15:36;6.50;;;5.30;;
5475;SDS011;2760;50.000;9.194;2023-04-23T01:18:03;8.87;;;5.83;;
5475;SDS011;2760;50.000;9.194;2023-04-23T01:20:32;8.90;;;5.00;;
5475;SDS011;2760;50.000;9.194;2023-04-23T01:23:01;7.30;;;5.57;;
5475;SDS011;2760;50.000;9.194;2023-04-23T01:25:28;11.03;;;5.67;;
5475;SDS011;2760;50.000;9.194;2023-04-23T01:27:55;7.83;;;5.97;;
5475;SDS011;2760;50.000;9.194;2023-04-23T01:30:25;10.53;;;6.53;;
5475;SDS011;2760;50.000;9.194;2023-04-23T01:32:54;5.60;;;5.10;;
5475;SDS011;2760;50.000;9.194;2023-04-23T01:35:22;5.70;;;5.20;;
5475;SDS011;2760;50.000;9.194;2023-04-23T01:37:50;7.97;;;5.70;;
5475;SDS011;2760;50.000;9.194;2023-04-23T01:40:20;6.40;;;5.07;;
5475;SDS011;2760;50.000;9.194;2023-04-23T01:42:47;6.50;;;4.80;;
5475;SDS011;2760;50.000;9.194;2023-04-23T01:45:15;7.50;;;5.23;;
5475;SDS011;2760;50.000;9.194;2023-04-23T01:47:43;6.70;;;5.13;;
5475;SDS011;2760;50.000;9.194;2023-04-23T01:50:11;6.20;;;5.03;;
5475;SDS011;2760;50.000;9.194;2023-04-23T01:52:40;9.30;;;5.23;;
5475;SDS011;2760;50.000;9.194;2023-04-23T01:55:08;5.40;;;4.87;;
5475;SDS011;2760;50.000;9.194;2023-04-23T01:57:37;7.13;;;5.53;;
5475;SDS011;2760;50.000;9.194;2023-04-23T02:00:05;6.13;;;5.13;;
5475;SDS011;2760;50.000;9.194;2023-04-23T02:02:38;5.50;;;5.00;;
5475;SDS011;2760;50.000;9.194;2023-04-23T02:05:08;7.43;;;4.67;;
5475;SDS011;2760;50.000;9.194;2023-04-23T02:07:37;8.23;;;5.20;;
5475;SDS011;2760;50.000;9.194;2023-04-23T02:10:04;5.17;;;4.67;;
5475;SDS011;2760;50.000;9.194;2023-04-23T02:12:32;5.63;;;5.10;;
5475;SDS011;2760;50.000;9.194;2023-04-23T02:15:01;5.60;;;4.87;;
5475;SDS011;2760;50.000;9.194;2023-04-23T02:17:28;5.93;;;4.40;;
5475;SDS011;2760;50.000;9.194;2023-04-23T02:19:55;5.77;;;4.60;;
5475;SDS011;2760;50.000;9.194;2023-04-23T02:22:23;7.70;;;5.03;;
5475;SDS011;2760;50.000;9.194;2023-04-23T02:24:50;7.70;;;5.17;;
5475;SDS011;2760;50.000;9.194;2023-04-23T02:27:17;6.97;;;5.20;;
5475;SDS011;2760;50.000;9.194;2023-04-23T02:29:46;5.27;;;4.77;;
5475;SDS011;2760;50.000;9.194;2023-04-23T02:32:15;6.37;;;4.90;;
5475;SDS011;2760;50.000;9.194;2023-04-23T02:34:42;7.10;;;5.50;;
5475;SDS011;2760;50.000;9.194;2023-04-23T02:37:10;6.13;;;5.37;;
5475;SDS011;2760;50.000;9.194;2023-04-23T02:39:37;5.60;;;5.07;;
5475;SDS011;2760;50.000;9.194;2023-04-23T02:42:04;9.63;;;5.97;;
5475;SDS011;2760;50.000;9.194;2023-04-23T02:44:31;8.50;;;5.43;;
5475;SDS011;2760;50.000;9.194;2023-04-23T02:46:58;5.60;;;5.10;;
5475;SDS011;2760;50.000;9.194;2023-04-23T02:49:27;6.53;;;5.10;;
5475;SDS011;2760;50.000;9.194;2023-04-23T02:51:54;5.40;;;4.90;;
5475;SDS011;2760;50.000;9.194;2023-04-23T02:54:23;8.37;;;5.77;;
5475;SDS011;2760;50.000;9.194;2023-04-23T02:56:50;7.97;;;5.77;;
5475;SDS011;2760;50.000;9.194;2023-04-23T02:59:17;7.77;;;5.87;;
5475;SDS011;2760;50.000;9.194;2023-04-23T03:01:44;5.73;;;5.13;;
5475;SDS011;2760;50.000;9.194;2023-04-23T03:04:13;6.70;;;6.00;;
5475;SDS011;2760;50.000;9.194;2023-04-23T03:06:42;8.20;;;6.20;;
5475;SDS011;2760;50.000;9.194;2023-04-23T03:09:09;11.67;;;6.30;;
5475;SDS011;2760;50.000;9.194;2023-04-23T03:11:37;6.30;;;5.70;;
5475;SDS011;2760;50.000;9.194;2023-04-23T03:14:04;6.60;;;5.70;;
5475;SDS011;2760;50.000;9.194;2023-04-23T03:16:31;6.80;;;6.20;;
5475;SDS011;2760;50.000;9.194;2023-04-23T03:18:58;7.30;;;6.47;;
5475;SDS011;2760;50.000;9.194;2023-04-23T03:21:26;7.20;;;6.20;;
5475;SDS011;2760;50.000;9.194;2023-04-23T03:23:57;8.40;;;6.47;;
5475;SDS011;2760;50.000;9.194;2023-04-23T03:26:24;7.17;;;5.80;;
5475;SDS011;2760;50.000;9.194;2023-04-23T03:28:52;7.70;;;6.60;;
5475;SDS011;2760;50.000;9.194;2023-04-23T03:31:19;8.00;;;6.73;;
5475;SDS011;2760;50.000;9.194;2023-04-23T03:33:48;7.73;;;6.47;;
5475;SDS011;2760;50.000;9.194;2023-04-23T03:36:21;8.03;;;6.97;;
5475;SDS011;2760;50.000;9.194;2023-04-23T03:38:48;8.13;;;7.10;;
5475;SDS011;2760;50.000;9.194;2023-04-23T03:41:19;7.97;;;6.93;;
5475;SDS011;2760;50.000;9.194;2023-04-23T03:43:47;12.00;;;7.90;;
5475;SDS011;2760;50.000;9.194;2023-04-23T03:46:19;7.80;;;7.00;;
5475;SDS011;2760;50.000;9.194;2023-04-23T03:48:50;7.03;;;6.33;;
5475;SDS011;2760;50.000;9.194;2023-04-23T03:51:24;9.43;;;7.30;;
5475;SDS011;2760;50.000;9.194;2023-04-23T03:53:52;12.47;;;7.40;;
5475;SDS011;2760;50.000;9.194;2023-04-23T03:56:40;7.83;;;7.03;;
5475;SDS011;2760;50.000;9.194;2023-04-23T03:59:14;8.50;;;6.60;;
5475;SDS011;2760;50.000;9.194;2023-04-23T04:01:42;8.80;;;7.23;;
5475;SDS011;2760;50.000;9.194;2023-04-23T04:04:09;7.27;;;6.47;;
5475;SDS011;2760;50.000;9.194;2023-04-23T04:06:36;7.60;;;6.37;;
5475;SDS011;2760;50.000;9.194;2023-04-23T04:09:03;8.30;;;5.73;;
5475;SDS011;2760;50.000;9.194;2023-04-23T04:11:32;6.90;;;6.07;;
5475;SDS011;2760;50.000;9.194;2023-04-23T04:14:00;7.10;;;6.40;;
5475;SDS011;2760;50.000;9.194;2023-04-23T04:16:29;9.13;;;6.50;;
5475;SDS011;2760;50.000;9.194;2023-04-23T04:18:56;8.70;;;6.60;;
5475;SDS011;2760;50.000;9.194;2023-04-23T04:21:25;7.27;;;6.20;;
5475;SDS011;2760;50.000;9.194;2023-04-23T04:23:53;10.07;;;7.57;;
5475;SDS011;2760;50.000;9.194;2023-04-23T04:26:20;9.37;;;6.80;;
5475;SDS011;2760;50.000;9.194;2023-04-23T04:28:48;9.83;;;6.33;;
5475;SDS011;2760;50.000;9.194;2023-04-23T04:31:17;7.37;;;5.60;;
5475;SDS011;2760;50.000;9.194;2023-04-23T04:33:44;6.60;;;6.00;;
5475;SDS011;2760;50.000;9.194;2023-04-23T04:36:11;7.80;;;6.87;;
5475;SDS011;2760;50.000;9.194;2023-04-23T04:38:38;6.13;;;5.63;;
5475;SDS011;2760;50.000;9.194;2023-04-23T04:41:05;7.43;;;6.67;;
5475;SDS011;2760;50.000;9.194;2023-04-23T04:43:33;11.03;;;7.10;;
5475;SDS011;2760;50.000;9.194;2023-04-23T04:46:00;8.17;;;6.40;;
5475;SDS011;2760;50.000;9.194;2023-04-23T04:48:29;6.53;;;5.80;;
5475;SDS011;2760;50.000;9.194;2023-04-23T04:50:56;8.70;;;6.77;;
5475;SDS011;2760;50.000;9.194;2023-04-23T04:53:23;9.33;;;6.27;;
5475;SDS011;2760;50.000;9.194;2023-04-23T04:55:50;11.43;;;6.17;;
5475;SDS011;2760;50.000;9.194;2023-04-23T04:58:17;9.00;;;6.03;;
5475;SDS011;2760;50.000;9.194;2023-04-23T05:00:45;9.77;;;7.00;;
5475;SDS011;2760;50.000;9.194;2023-04-23T05:03:13;11.83;;;6.13;;
5475;SDS011;2760;50.000;9.194;2023-04-23T05:05:41;7.70;;;6.87;;
5475;SDS011;2760;50.000;9.194;2023-04-23T05:08:09;10.57;;;6.77;;
5475;SDS011;2760;50.000;9.194;2023-04-23T05:10:36;8.23;;;6.63;;
5475;SDS011;2760;50.000;9.194;2023-04-23T05:13:03;7.83;;;6.63;;
5475;SDS011;2760;50.000;9.194;2023-04-23T05:15:30;7.87;;;7.07;;
5475;SDS011;2760;50.000;9.194;2023-04-23T05:17:57;6.67;;;6.07;;
5475;SDS011;2760;50.000;9.194;2023-04-23T05:20:24;7.70;;;6.47;;
5475;SDS011;2760;50.000;9.194;2023-04-23T05:22:53;6.60;;;6.00;;
5475;SDS011;2760;50.000;9.194;2023-04-23T05:25:20;6.93;;;6.30;;
5475;SDS011;2760;50.000;9.194;2023-04-23T05:27:47;6.83;;;6.23;;
5475;SDS011;2760;50.000;9.194;2023-04-23T05:30:14;6.13;;;5.43;;
5475;SDS011;2760;50.000;9.194;2023-04-23T05:32:41;7.10;;;5.53;;
5475;SDS011;2760;50.000;9.194;2023-04-23T05:35:08;6.93;;;6.30;;
5475;SDS011;2760;50.000;9.194;2023-04-23T05:37:35;6.57;;;5.90;;
5475;SDS011;2760;50.000;9.194;2023-04-23T05:40:05;7.53;;;5.50;;
5475;SDS011;2760;50.000;9.194;2023-04-23T05:42:33;7.17;;;6.57;;
5475;SDS011;2760;50.000;9.194;2023-04-23T05:45:00;8.80;;;6.73;;
5475;SDS011;2760;50.000;9.194;2023-04-23T05:47:30;8.87;;;6.63;;
5475;SDS011;2760;50.000;9.194;2023-04-23T05:49:57;6.53;;;5.90;;
5475;SDS011;2760;50.000;9.194;2023-04-23T05:52:25;7.97;;;6.47;;
5475;SDS011;2760;50.000;9.194;2023-04-23T05:54:55;7.60;;;6.77;;
5475;SDS011;2760;50.000;9.194;2023-04-23T05:57:23;6.80;;;5.83;;
5475;SDS011;2760;50.000;9.194;2023-04-23T05:59:50;6.33;;;5.40;;
5475;SDS011;2760;50.000;9.194;2023-04-23T06:02:17;7.80;;;6.30;;
5475;SDS011;2760;50.000;9.194;2023-04-23T06:04:44;7.20;;;5.60;;
5475;SDS011;2760;50.000;9.194;2023-04-23T06:07:11;6.70;;;5.73;;
5475;SDS011;2760;50.000;9.194;2023-04-23T06:09:39;5.57;;;4.77;;
5475;SDS011;2760;50.000;9.194;2023-04-23T06:12:06;6.77;;;5.03;;
5475;SDS011;2760;50.000;9.194;2023-04-23T06:14:34;6.77;;;5.27;;
5475;SDS011;2760;50.000;9.194;2023-04-23T06:17:01;5.80;;;4.80;;
5475;SDS011;2760;50.000;9.194;2023-04-23T06:19:28;5.93;;;5.33;;
5475;SDS011;2760;50.000;9.194;2023-04-23T06:21:55;5.30;;;4.70;;
5475;SDS011;2760;50.000;9.194;2023-04-23T06:24:22;6.50;;;5.80;;
5475;SDS011;2760;50.000;9.194;2023-04-23T06:26:49;11.33;;;5.00;;
5475;SDS011;2760;50.000;9.194;2023-04-23T06:29:19;6.37;;;5.77;;
5475;SDS011;2760;50.000;9.194;2023-04-23T06:31:53;5.43;;;4.90;;
5475;SDS011;2760;50.000;9.194;2023-04-23T06:34:20;5.30;;;4.90;;
5475;SDS011;2760;50.000;9.194;2023-04-23T06:36:49;11.33;;;6.10;;
5475;SDS011;2760;50.000;9.194;2023-04-23T06:39:16;5.73;;;5.10;;
5475;SDS011;2760;50.000;9.194;2023-04-23T06:41:43;6.57;;;5.70;;
5475;SDS011;2760;50.000;9.194;2023-04-23T06:44:18;5.77;;;4.90;;
5475;SDS011;2760;50.000;9.194;2023-04-23T06:46:50;6.13;;;4.90;;
5475;SDS011;2760;50.000;9.194;2023-04-23T06:49:18;7.80;;;5.03;;
5475;SDS011;2760;50.000;9.194;2023-04-23T06:51:45;8.03;;;5.50;;
5475;SDS011;2760;50.000;9.194;2023-04-23T06:54:12;6.97;;;4.87;;
5475;SDS011;2760;50.000;9.194;2023-04-23T06:56:39;5.80;;;5.07;;
5475;SDS011;2760;50.000;9.194;2023-04-23T06:59:06;5.13;;;4.63;;
5475;SDS011;2760;50.000;9.194;2023-04-23T07:01:41;4.53;;;4.13;;
5475;SDS011;2760;50.000;9.194;2023-04-23T07:04:08;6.30;;;5.70;;
5475;SDS011;2760;50.000;9.194;2023-04-23T07:06:37;5.53;;;4.97;;
5475;SDS011;2760;50.000;9.194;2023-04-23T07:09:04;7.23;;;4.93;;
5475;SDS011;2760;50.000;9.194;2023-04-23T07:11:31;5.73;;;4.57;;
5475;SDS011;2760;50.000;9.194;2023-04-23T07:14:00;4.40;;;4.00;;
5475;SDS011;2760;50.000;9.194;2023-04-23T07:16:28;6.37;;;3.80;;
5475;SDS011;2760;50.000;9.194;2023-04-23T07:18:58;5.67;;;4.00;;
5475;SDS011;2760;50.000;9.194;2023-04-23T07:21:26;3.90;;;3.60;;
5475;SDS011;2760;50.000;9.194;2023-04-23T07:23:56;3.80;;;3.43;;
5475;SDS011;2760;50.000;9.194;2023-04-23T07:26:24;4.03;;;3.73;;
5475;SDS011;2760;50.000;9.194;2023-04-23T07:28:51;4.00;;;3.53;;
5475;SDS011;2760;50.000;9.194;2023-04-23T07:31:18;4.13;;;3.70;;
5475;SDS011;2760;50.000;9.194;2023-04-23T07:33:46;3.57;;;3.27;;
5475;SDS011;2760;50.000;9.194;2023-04-23T07:36:13;6.57;;;4.00;;
5475;SDS011;2760;50.000;9.194;2023-04-23T07:38:40;4.10;;;3.80;;
5475;SDS011;2760;50.000;9.194;2023-04-23T07:41:09;5.23;;;3.73;;
5475;SDS011;2760;50.000;9.194;2023-04-23T07:43:37;9.50;;;4.10;;
5475;SDS011;2760;50.000;9.194;2023-04-23T07:46:04;5.90;;;4.20;;
5475;SDS011;2760;50.000;9.194;2023-04-23T07:48:31;4.37;;;3.87;;
5475;SDS011;2760;50.000;9.194;2023-04-23T07:50:59;4.03;;;3.73;;
5475;SDS011;2760;50.000;9.194;2023-04-23T07:53:26;8.93;;;4.63;;
5475;SDS011;2760;50.000;9.194;2023-04-23T07:55:53;4.10;;;3.70;;
5475;SDS011;2760;50.000;9.194;2023-04-23T07:58:22;5.60;;;3.90;;
5475;SDS011;2760;50.000;9.194;2023-04-23T08:00:49;4.17;;;3.80;;
5475;SDS011;2760;50.000;9.194;2023-04-23T08:03:17;4.00;;;3.70;;
5475;SDS011;2760;50.000;9.194;2023-04-23T08:05:44;3.83;;;3.47;;
5475;SDS011;2760;50.000;9.194;2023-04-23T08:08:11;5.57;;;3.90;;
5475;SDS011;2760;50.000;9.194;2023-04-23T08:10:39;5.43;;;3.80;;
5475;SDS011;2760;50.000;9.194;2023-04-23T08:13:06;4.63;;;4.23;;
5475;SDS011;2760;50.000;9.194;2023-04-23T08:15:35;4.30;;;4.00;;
5475;SDS011;2760;50.000;9.194;2023-04-23T08:18:02;12.63;;;4.87;;
5475;SDS011;2760;50.000;9.194;2023-04-23T08:20:29;4.37;;;4.03;;
5475;SDS011;2760;50.000;9.194;2023-04-23T08:22:57;4.40;;;3.70;;
5475;SDS011;2760;50.000;9.194;2023-04-23T08:25:24;4.73;;;4.30;;
5475;SDS011;2760;50.000;9.194;2023-04-23T08:27:51;9.03;;;5.10;;
5475;SDS011;2760;50.000;9.194;2023-04-23T08:30:18;6.83;;;4.23;;
5475;SDS011;2760;50.000;9.194;2023-04-23T08:32:48;7.70;;;4.53;;
5475;SDS011;2760;50.000;9.194;2023-04-23T08:35:17;7.53;;;5.10;;
5475;SDS011;2760;50.000;9.194;2023-04-23T08:37:45;6.47;;;5.90;;
5475;SDS011;2760;50.000;9.194;2023-04-23T08:40:12;5.33;;;4.83;;
5475;SDS011;2760;50.000;9.194;2023-04-23T08:42:41;5.37;;;4.30;;
5475;SDS011;2760;50.000;9.194;2023-04-23T08:45:10;6.20;;;5.40;;
5475;SDS011;2760;50.000;9.194;2023-04-23T08:47:38;4.70;;;4.30;;
5475;SDS011;2760;50.000;9.194;2023-04-23T08:50:10;5.67;;;4.97;;
5475;SDS011;2760;50.000;9.194;2023-04-23T08:52:39;8.10;;;5.20;;
5475;SDS011;2760;50.000;9.194;2023-04-23T08:55:42;5.20;;;4.30;;
5475;SDS011;2760;50.000;9.194;2023-04-23T08:58:10;6.53;;;4.70;;
5475;SDS011;2760;50.000;9.194;2023-04-23T09:00:38;5.30;;;4.30;;
5475;SDS011;2760;50.000;9.194;2023-04-23T09:03:06;5.27;;;3.93;;
5475;SDS011;2760;50.000;9.194;2023-04-23T09:05:40;5.27;;;4.20;;
5475;SDS011;2760;50.000;9.194;2023-04-23T09:08:11;5.80;;;4.50;;
5475;SDS011;2760;50.000;9.194;2023-04-23T09:10:39;4.60;;;4.00;;
5475;SDS011;2760;50.000;9.194;2023-04-23T09:13:07;9.93;;;4.13;;
5475;SDS011;2760;50.000;9.194;2023-04-23T09:15:36;4.43;;;3.40;;
5475;SDS011;2760;50.000;9.194;2023-04-23T09:18:07;4.73;;;3.67;;
5475;SDS011;2760;50.000;9.194;2023-04-23T09:20:35;6.73;;;3.80;;
5475;SDS011;2760;50.000;9.194;2023-04-23T09:23:06;6.90;;;3.50;;
5475;SDS011;2760;50.000;9.194;2023-04-23T09:25:34;4.33;;;3.50;;
5475;SDS011;2760;50.000;9.194;2023-04-23T09:28:01;4.20;;;3.47;;
5475;SDS011;2760;50.000;9.194;2023-04-23T09:30:37;9.90;;;4.03;;
5475;SDS011;2760;50.000;9.194;2023-04-23T09:33:05;5.03;;;3.73;;
5475;SDS011;2760;50.000;9.194;2023-04-23T09:35:32;3.87;;;3.20;;
5475;SDS011;2760;50.000;9.194;2023-04-23T09:38:00;3.80;;;3.37;;
5475;SDS011;2760;50.000;9.194;2023-04-23T09:40:33;3.53;;;3.23;;
5475;SDS011;2760;50.000;9.194;2023-04-23T09:43:02;7.00;;;3.27;;
5475;SDS011;2760;50.000;9.194;2023-04-23T09:45:31;3.83;;;3.53;;
5475;SDS011;2760;50.000;9.194;2023-04-23T09:47:59;4.40;;;3.50;;
5475;SDS011;2760;50.000;9.194;2023-04-23T09:50:32;5.57;;;3.63;;
5475;SDS011;2760;50.000;9.194;2023-04-23T09:53:01;4.97;;;3.40;;
5475;SDS011;2760;50.000;9.194;2023-04-23T09:55:31;3.37;;;2.80;;
5475;SDS011;2760;50.000;9.194;2023-04-23T09:58:03;3.53;;;3.23;;
5475;SDS011;2760;50.000;9.194;2023-04-23T10:00:31;5.67;;;3.13;;
5475;SDS011;2760;50.000;9.194;2023-04-23T10:02:59;3.10;;;2.80;;
5475;SDS011;2760;50.000;9.194;2023-04-23T10:05:27;4.87;;;3.10;;
5475;SDS011;2760;50.000;9.194;2023-04-23T10:07:54;2.50;;;2.40;;
5475;SDS011;2760;50.000;9.194;2023-04-23T10:10:22;3.27;;;2.90;;
5475;SDS011;2760;50.000;9.194;2023-04-23T10:12:50;3.83;;;2.70;;
5475;SDS011;2760;50.000;9.194;2023-04-23T10:15:21;2.77;;;2.57;;
5475;SDS011;2760;50.000;9.194;2023-04-23T10:17:50;5.53;;;2.60;;
5475;SDS011;2760;50.000;9.194;2023-04-23T10:20:17;6.00;;;2.90;;
5475;SDS011;2760;50.000;9.194;2023-04-23T10:22:47;4.83;;;2.60;;
5475;SDS011;2760;50.000;9.194;2023-04-23T10:25:14;4.80;;;2.57;;
5475;SDS011;2760;50.000;9.194;2023-04-23T10:27:44;2.80;;;2.60;;
5475;SDS011;2760;50.000;9.194;2023-04-23T10:30:15;4.20;;;2.57;;
5475;SDS011;2760;50.000;9.194;2023-04-23T10:32:44;2.67;;;2.47;;
5475;SDS011;2760;50.000;9.194;2023-04-23T10:35:13;3.53;;;2.57;;
5475;SDS011;2760;50.000;9.194;2023-04-23T10:37:41;5.57;;;2.97;;
5475;SDS011;2760;50.000;9.194;2023-04-23T10:40:11;3.17;;;2.90;;
5475;SDS011;2760;50.000;9.194;2023-04-23T10:42:39;4.70;;;2.53;;
5475;SDS011;2760;50.000;9.194;2023-04-23T10:45:12;2.90;;;2.70;;
5475;SDS011;2760;50.000;9.194;2023-04-23T10:47:41;3.50;;;2.67;;
5475;SDS011;2760;50.000;9.194;2023-04-23T10:50:21;2.57;;;2.37;;
5475;SDS011;2760;50.000;9.194;2023-04-23T10:52:49;5.20;;;2.80;;
5475;SDS011;2760;50.000;9.194;2023-04-23T10:55:18;4.13;;;3.03;;
5475;SDS011;2760;50.000;9.194;2023-04-23T10:57:56;2.93;;;2.63;;
5475;SDS011;2760;50.000;9.194;2023-04-23T11:00:24;6.83;;;2.43;;
5475;SDS011;2760;50.000;9.194;2023-04-23T11:02:51;2.53;;;2.07;;
5475;SDS011;2760;50.000;9.194;2023-04-23T11:05:20;2.50;;;2.30;;
5475;SDS011;2760;50.000;9.194;2023-04-23T11:08:01;3.63;;;2.30;;
5475;SDS011;2760;50.000;9.194;2023-04-23T11:10:30;3.47;;;1.93;;
5475;SDS011;2760;50.000;9.194;2023-04-23T11:13:18;5.60;;;1.90;;
5475;SDS011;2760;50.000;9.194;2023-04-23T11:21:21;3.80;;;1.73;;
5475;SDS011;2760;50.000;9.194;2023-04-23T11:23:48;3.13;;;2.07;;
5475;SDS011;2760;50.000;9.194;2023-04-23T11:26:16;2.23;;;2.00;;
5475;SDS011;2760;50.000;9.194;2023-04-23T11:28:43;3.67;;;1.83;;
5475;SDS011;2760;50.000;9.194;2023-04-23T11:31:13;7.63;;;2.77;;
5475;SDS011;2760;50.000;9.194;2023-04-23T11:33:40;1.87;;;1.77;;
5475;SDS011;2760;50.000;9.194;2023-04-23T11:36:07;1.60;;;1.50;;
5475;SDS011;2760;50.000;9.194;2023-04-23T11:38:41;2.00;;;1.80;;
5475;SDS011;2760;50.000;9.194;2023-04-23T11:41:10;4.13;;;1.70;;
5475;SDS011;2760;50.000;9.194;2023-04-23T11:43:38;1.70;;;1.60;;
5475;SDS011;2760;50.000;9.194;2023-04-23T11:46:07;4.13;;;1.60;;
5475;SDS011;2760;50.000;9.194;2023-04-23T11:48:34;1.57;;;1.27;;
5475;SDS011;2760;50.000;9.194;2023-04-23T11:51:02;3.53;;;1.70;;
5475;SDS011;2760;50.000;9.194;2023-04-23T11:53:30;4.73;;;1.70;;
5475;SDS011;2760;50.000;9.194;2023-04-23T11:55:58;3.50;;;1.80;;
5475;SDS011;2760;50.000;9.194;2023-04-23T11:58:26;1.90;;;1.77;;
5475;SDS011;2760;50.000;9.194;2023-04-23T12:00:55;2.27;;;1.60;;
5475;SDS011;2760;50.000;9.194;2023-04-23T12:03:26;2.00;;;1.80;;
5475;SDS011;2760;50.000;9.194;2023-04-23T12:05:54;1.80;;;1.37;;
5475;SDS011;2760;50.000;9.194;2023-04-23T12:08:22;2.47;;;1.60;;
5475;SDS011;2760;50.000;9.194;2023-04-23T12:10:50;1.93;;;1.73;;
5475;SDS011;2760;50.000;9.194;2023-04-23T12:13:20;2.43;;;1.57;;
5475;SDS011;2760;50.000;9.194;2023-04-23T12:15:49;2.23;;;1.90;;
5475;SDS011;2760;50.000;9.194;2023-04-23T12:18:17;1.70;;;1.60;;
5475;SDS011;2760;50.000;9.194;2023-04-23T12:20:44;2.60;;;1.80;;
5475;SDS011;2760;50.000;9.194;2023-04-23T12:23:12;1.70;;;1.60;;
5475;SDS011;2760;50.000;9.194;2023-04-23T12:25:39;5.67;;;1.47;;
5475;SDS011;2760;50.000;9.194;2023-04-23T12:28:07;4.80;;;1.93;;
5475;SDS011;2760;50.000;9.194;2023-04-23T12:30:41;4.87;;;2.03;;
5475;SDS011;2760;50.000;9.194;2023-04-23T12:33:09;2.67;;;1.73;;
5475;SDS011;2760;50.000;9.194;2023-04-23T12:35:37;3.20;;;1.80;;
5475;SDS011;2760;50.000;9.194;2023-04-23T12:38:08;2.60;;;1.63;;
5475;SDS011;2760;50.000;9.194;2023-04-23T12:40:47;2.00;;;1.90;;
5475;SDS011;2760;50.000;9.194;2023-04-23T12:43:14;1.90;;;1.80;;
5475;SDS011;2760;50.000;9.194;2023-04-23T12:45:43;1.60;;;1.50;;
5475;SDS011;2760;50.000;9.194;2023-04-23T12:48:10;2.10;;;1.50;;
5475;SDS011;2760;50.000;9.194;2023-04-23T12:50:37;2.10;;;1.70;;
5475;SDS011;2760;50.000;9.194;2023-04-23T12:53:05;1.93;;;1.73;;
5475;SDS011;2760;50.000;9.194;2023-04-23T12:55:32;2.10;;;2.00;;
5475;SDS011;2760;50.000;9.194;2023-04-23T12:58:00;2.70;;;1.70;;
5475;SDS011;2760;50.000;9.194;2023-04-23T13:00:28;4.40;;;1.80;;
5475;SDS011;2760;50.000;9.194;2023-04-23T13:02:57;2.33;;;1.50;;
5475;SDS011;2760;50.000;9.194;2023-04-23T13:05:24;2.90;;;1.90;;
5475;SDS011;2760;50.000;9.194;2023-04-23T13:07:51;2.10;;;1.90;;
5475;SDS011;2760;50.000;9.194;2023-04-23T13:10:18;3.37;;;1.50;;
5475;SDS011;2760;50.000;9.194;2023-04-23T13:12:45;2.50;;;1.80;;
5475;SDS011;2760;50.000;9.194;2023-04-23T13:15:12;2.13;;;1.93;;
5475;SDS011;2760;50.000;9.194;2023-04-23T13:17:39;2.20;;;1.50;;
5475;SDS011;2760;50.000;9.194;2023-04-23T13:20:08;2.03;;;1.67;;
5475;SDS011;2760;50.000;9.194;2023-04-23T13:22:36;3.07;;;1.87;;
5475;SDS011;2760;50.000;9.194;2023-04-23T13:25:03;2.40;;;1.80;;
5475;SDS011;2760;50.000;9.194;2023-04-23T13:27:30;2.90;;;1.80;;
5475;SDS011;2760;50.000;9.194;2023-04-23T13:29:57;1.97;;;1.70;;
5475;SDS011;2760;50.000;9.194;2023-04-23T13:32:25;1.87;;;1.77;;
5475;SDS011;2760;50.000;9.194;2023-04-23T13:34:56;1.57;;;1.33;;
5475;SDS011;2760;50.000;9.194;2023-04-23T13:37:29;1.63;;;1.53;;
5475;SDS011;2760;50.000;9.194;2023-04-23T13:39:56;4.30;;;1.57;;
5475;SDS011;2760;50.000;9.194;2023-04-23T13:42:24;2.43;;;1.67;;
5475;SDS011;2760;50.000;9.194;2023-04-23T13:44:51;1.60;;;1.50;;
5475;SDS011;2760;50.000;9.194;2023-04-23T13:47:18;1.60;;;1.50;;
5475;SDS011;2760;50.000;9.194;2023-04-23T13:49:45;1.70;;;1.60;;
5475;SDS011;2760;50.000;9.194;2023-04-23T13:52:12;3.87;;;1.67;;
5475;SDS011;2760;50.000;9.194;2023-04-23T13:54:41;3.80;;;1.40;;
5475;SDS011;2760;50.000;9.194;2023-04-23T13:57:08;1.83;;;1.70;;
5475;SDS011;2760;50.000;9.194;2023-04-23T13:59:35;1.63;;;1.53;;
5475;SDS011;2760;50.000;9.194;2023-04-23T14:02:02;1.53;;;1.43;;
5475;SDS011;2760;50.000;9.194;2023-04-23T14:04:29;1.60;;;1.40;;
5475;SDS011;2760;50.000;9.194;2023-04-23T14:06:56;3.63;;;1.60;;
5475;SDS011;2760;50.000;9.194;2023-04-23T14:09:23;1.80;;;1.70;;
5475;SDS011;2760;50.000;9.194;2023-04-23T14:11:53;1.57;;;1.40;;
5475;SDS011;2760;50.000;9.194;2023-04-23T14:14:20;3.23;;;1.40;;
5475;SDS011;2760;50.000;9.194;2023-04-23T14:16:47;1.53;;;1.30;;
5475;SDS011;2760;50.000;9.194;2023-04-23T14:19:14;3.30;;;1.43;;
5475;SDS011;2760;50.000;9.194;2023-04-23T14:21:41;1.57;;;1.37;;
5475;SDS011;2760;50.000;9.194;2023-04-23T14:24:08;2.33;;;1.13;;
5475;SDS011;2760;50.000;9.194;2023-04-23T14:26:43;1.50;;;1.10;;
5475;SDS011;2760;50.000;9.194;2023-04-23T14:29:18;3.07;;;1.33;;
5475;SDS011;2760;50.000;9.194;2023-04-23T14:31:50;1.60;;;1.50;;
5475;SDS011;2760;50.000;9.194;2023-04-23T14:34:17;1.40;;;1.30;;
5475;SDS011;2760;50.000;9.194;2023-04-23T14:36:45;1.60;;;1.50;;
5475;SDS011;2760;50.000;9.194;2023-04-23T14:39:13;1.47;;;1.37;;
5475;SDS011;2760;50.000;9.194;2023-04-23T14:41:40;5.23;;;1.60;;
5475;SDS011;2760;50.000;9.194;2023-04-23T14:44:07;7.70;;;1.50;;
5475;SDS011;2760;50.000;9.194;2023-04-23T14:46:35;2.50;;;1.40;;
5475;SDS011;2760;50.000;9.194;2023-04-23T14:49:03;1.30;;;1.20;;
5475;SDS011;2760;50.000;9.194;2023-04-23T14:51:30;6.50;;;1.40;;
5475;SDS011;2760;50.000;9.194;2023-04-23T14:53:57;1.50;;;1.40;;
5475;SDS011;2760;50.000;9.194;2023-04-23T14:56:28;1.70;;;1.60;;
5475;SDS011;2760;50.000;9.194;2023-04-23T14:58:55;2.27;;;1.30;;
5475;SDS011;2760;50.000;9.194;2023-04-23T15:01:22;2.93;;;1.50;;
5475;SDS011;2760;50.000;9.194;2023-04-23T15:03:51;1.63;;;1.20;;
5475;SDS011;2760;50.000;9.194;2023-04-23T15:06:18;1.93;;;1.40;;
5475;SDS011;2760;50.000;9.194;2023-04-23T15:08:45;2.40;;;1.27;;
5475;SDS011;2760;50.000;9.194;2023-04-23T15:11:12;1.50;;;1.40;;
5475;SDS011;2760;50.000;9.194;2023-04-23T15:13:43;1.10;;;1.00;;
5475;SDS011;2760;50.000;9.194;2023-04-23T15:16:18;4.00;;;1.20;;
5475;SDS011;2760;50.000;9.194;2023-04-23T15:18:53;10.20;;;1.33;;
5475;SDS011;2760;50.000;9.194;2023-04-23T15:21:21;1.43;;;1.33;;
5475;SDS011;2760;50.000;9.194;2023-04-23T15:23:48;1.60;;;1.50;;
5475;SDS011;2760;50.000;9.194;2023-04-23T15:26:15;1.50;;;1.17;;
5475;SDS011;2760;50.000;9.194;2023-04-23T15:28:42;2.30;;;1.33;;